Wilmington, OH

10:02 AM EST on February 12, 2016 (GMT -0500)
2.2 N Wilmington | | Change Station
CLOSE
Current Station
Personal Weather Station
Location: Wilmington, OH
Elevation: 1053 ft
Nearby Weather Stations

Elev 1053 ft 39.47 °N, 83.84 °W | Updated 8 minutes ago

Overcast
Overcast
20.2 °F
Feels Like 12 °F
N
6.0
Wind Variable Wind from SW
Gusts 10.0 mph

Today
High -- | Low -- °F
--% Chance of Precip.
Yesterday
High -- | Low -- °F
Precip. -- in
Pressure 30.26 in
Visibility 10.0 miles
Clouds Overcast 7000 ft
Windchill 12 °F
Dew Point 11 °F
Humidity 67%
Rainfall 0.00 in
Snow Depth Not available.
7:31 AM 6:08 PM
Waxing Crescent, 21% visible
METAR KILN 121454Z AUTO 21008KT 10SM OVC070 M07/M13 A3013 RMK AO2 SLP245 T10721128 56009
Pressure 30.26 in
Visibility 10.0 miles
Clouds Overcast 7000 ft
Windchill 12 °F
Dew Point 11 °F
Humidity 67%
Rainfall 0.00 in
Snow Depth Not available.
7:31 AM 6:08 PM
Waxing Crescent, 21% visible
METAR KILN 121454Z AUTO 21008KT 10SM OVC070 M07/M13 A3013 RMK AO2 SLP245 T10721128 56009

10-Day Weather Forecast

Almanac

Astronomy

Feb. 12, 2016 Rise Set
Actual Time
Civil Twilight
Nautical Twilight
Astronomical Twilight
Moon
Length of Visible Light
Length of Day
Tomorrow will be .
, % of the Moon is Illuminated

Today's Extremes

State Highs State Lows

Community

WunderPhotos

Upload Photos

1,892,323 photos uploaded!

WunderBlog® & News

Nearby

Air Quality

  Air Quality AQ Index Pollutant
Not available.

Snow Depth

Station Depth Elevation

Earthquake Activity

City Distance Mag. Time & Date
Minimum magnitude displayed is 2.5.

Coastal Water Temperatures

Place Temperature

Stations

Nearby Weather Stations

Station Location Temp. Windchill Dew Point Humidity Wind Precip. Elev Updated Type
                   

Watches & Warnings

There are currently no watches in effect.